Liuting Airport
ZSQD : now visible

Airfield :











YOU CAN JOIN US ON...

 
LOGIN :

Register | Disclaimer

   EN    FR    IT 

 









Legend :    VFR   Marginal VFR   IFR   Intensive IFR   Very Intensive IFR
Visi :
Ceiling :
>= 8 km
>= 3000ft
5 to 8 km
1000 to 3000 ft
1500m to 5 km
500 to 1000 ft
800 to 1500m
200 to 500 ft
< 800m
< 200 ft
Symbols :   Thunderstorms  Fog  Heavy snow  Heavy precipitations  Wind > 20 kt







- Airport Elevation : 33 ft
- IATA code : TAO


ZSQD - Liuting

CURRENT METAR :
  • 211400Z 26001MPS 7000 NSC 14/12 Q1015 NOSIG

EXPIRED METARs :
  • 211300Z 26002MPS 7000 SCT017 15/12 Q1015 NOSIG
  • 211200Z 26002MPS 8000 OVC030 15/13 Q1014 NOSIG

TAF TAF ZSQD
Valid from the 21 at 12:00 until the 22 at 12:00 UTC


210911Z 2112/2212 18003MPS 5000 BR BKN030 TX18/2206Z TN10/2121Z
ZSHA FIR / Asia



MET'MAP, your aeronautical weather chart ! - Copyright ORBIFLY December 2007 - Disclaimer

ORBIFLY MET'MAP TEAM :

Programming & Development : Alexandra Zaïnal
Concept & Development : Baudouin d'Aumeries
Co-Development & Prog : Marc-Olivier Méhu
Technical & hardware support : Manuel Goepfert

Contact : metmap@orbifly.com




SOURCES & CREDITS :

   NOAA       Earth
Advisory